createdAt,value
2018-06-04T00:02:26.536Z,101043.89
2018-06-04T00:04:54.908Z,101041.89
2018-06-04T00:07:23.375Z,101043.41
2018-06-04T00:09:51.788Z,101039.57
2018-06-04T00:12:20.146Z,101043.95
2018-06-04T00:14:48.492Z,101045.17
2018-06-04T00:17:16.908Z,101048.04
2018-06-04T00:19:45.374Z,101037.93
2018-06-04T00:22:13.699Z,101039.59
2018-06-04T00:24:42.009Z,101039.24
2018-06-04T00:27:10.312Z,101032.86
2018-06-04T00:29:38.656Z,101039.42
2018-06-04T00:32:07.087Z,101037.93
2018-06-04T00:34:35.441Z,101042.85
2018-06-04T00:37:03.785Z,101042.02
2018-06-04T00:39:32.100Z,101035.49
2018-06-04T00:42:00.412Z,101036.00
2018-06-04T00:44:28.775Z,101036.68
2018-06-04T00:46:57.264Z,101036.03
2018-06-04T00:49:25.621Z,101026.67
2018-06-04T00:51:53.903Z,101025.74
2018-06-04T00:54:22.313Z,101027.44
2018-06-04T00:56:50.715Z,101030.48
2018-06-04T00:59:19.159Z,101028.30
2018-06-04T01:01:47.492Z,101024.13
2018-06-04T01:04:15.848Z,101020.16
2018-06-04T01:06:44.203Z,101021.35
2018-06-04T01:09:12.555Z,101019.86
2018-06-04T01:11:40.960Z,101017.53
2018-06-04T01:14:09.305Z,101010.50
2018-06-04T01:16:37.658Z,101014.70
2018-06-04T01:19:05.991Z,101015.20
2018-06-04T01:21:34.349Z,101013.03
2018-06-04T01:24:02.692Z,101010.17
2018-06-04T01:26:31.157Z,101007.50
2018-06-04T01:28:59.556Z,101001.62
2018-06-04T01:31:27.867Z,101005.98
2018-06-04T01:33:56.245Z,101002.47
2018-06-04T01:36:24.621Z,101009.34
2018-06-04T01:38:53.072Z,100996.27
2018-06-04T01:41:21.396Z,101001.51
2018-06-04T01:43:49.740Z,101005.88
2018-06-04T01:46:18.113Z,101008.56
2018-06-04T01:48:46.460Z,100999.19
2018-06-04T01:51:14.915Z,100998.52
2018-06-04T01:53:43.292Z,100990.16
2018-06-04T01:56:11.648Z,100986.48
2018-06-04T01:58:40.005Z,100984.97
2018-06-04T02:01:08.340Z,100985.52
2018-06-04T02:03:36.698Z,100982.52
2018-06-04T02:06:05.129Z,100982.34
2018-06-04T02:08:33.531Z,100977.48
2018-06-04T02:11:01.916Z,100975.44
2018-06-04T02:13:30.269Z,100973.59
2018-06-04T02:15:58.584Z,100972.13
2018-06-04T02:18:26.953Z,100974.66
2018-06-04T02:20:55.311Z,100969.30
2018-06-04T02:23:23.705Z,100971.14
2018-06-04T02:25:52.032Z,100969.47
2018-06-04T02:28:20.360Z,100963.45
2018-06-04T02:30:48.800Z,100960.47
2018-06-04T02:33:17.203Z,100962.20
2018-06-04T02:35:45.588Z,100957.34
2018-06-04T02:38:13.935Z,100957.01
2018-06-04T02:40:42.292Z,100956.86
2018-06-04T02:43:10.630Z,100961.38
2018-06-04T02:45:39.097Z,100963.07
2018-06-04T02:48:07.982Z,100966.94
2018-06-04T02:50:36.486Z,100973.47
2018-06-04T02:53:04.837Z,100974.69
2018-06-04T02:55:33.268Z,100975.72
2018-06-04T02:58:01.624Z,100974.40
2018-06-04T03:00:30.244Z,100973.06
2018-06-04T03:02:58.661Z,100977.42
2018-06-04T03:05:28.692Z,100972.06
2018-06-04T03:07:57.191Z,100974.41
2018-06-04T03:10:25.595Z,100975.42
2018-06-04T03:12:56.696Z,100964.91
2018-06-04T03:15:25.042Z,100968.45
2018-06-04T03:17:53.453Z,100964.42
2018-06-04T03:20:21.794Z,100963.42
2018-06-04T03:22:50.223Z,100960.41
2018-06-04T03:25:18.661Z,100961.42
2018-06-04T03:27:47.119Z,100958.74
2018-06-04T03:30:15.580Z,100956.40
2018-06-04T03:32:43.983Z,100953.39
2018-06-04T03:35:12.291Z,100962.43
2018-06-04T03:37:40.665Z,100957.41
2018-06-04T03:40:09.047Z,100953.06
2018-06-04T03:42:37.475Z,100952.91
2018-06-04T03:45:05.881Z,100957.59
2018-06-04T03:47:34.199Z,100956.09
2018-06-04T03:50:02.567Z,100961.78
2018-06-04T03:52:30.963Z,100958.45
2018-06-04T03:54:59.406Z,100954.77
2018-06-04T03:57:27.800Z,100951.91
2018-06-04T03:59:56.139Z,100950.57
2018-06-04T04:02:24.543Z,100954.41
2018-06-04T04:04:52.916Z,100954.92
2018-06-04T04:07:21.301Z,100953.91
2018-06-04T04:09:49.588Z,100954.06
2018-06-04T04:12:17.948Z,100949.55
2018-06-04T04:14:46.288Z,100953.22
2018-06-04T04:17:15.438Z,100956.73
2018-06-04T04:19:43.973Z,100952.54
2018-06-04T04:22:12.435Z,100953.88
2018-06-04T04:24:40.913Z,100956.38
2018-06-04T04:27:09.297Z,100949.69
2018-06-04T04:29:37.760Z,100950.64
2018-06-04T04:32:06.076Z,100945.62
2018-06-04T04:34:35.213Z,100945.77
2018-06-04T04:37:03.577Z,100952.95
2018-06-04T04:39:32.004Z,100943.73
2018-06-04T04:42:00.630Z,100952.28
2018-06-04T04:44:29.038Z,100949.92
2018-06-04T04:46:57.791Z,100948.92
2018-06-04T04:49:26.159Z,100945.53
2018-06-04T04:51:55.473Z,100946.52
2018-06-04T04:54:23.807Z,100947.17
2018-06-04T04:56:52.220Z,100946.50
2018-06-04T04:59:20.591Z,100943.13
2018-06-04T05:01:49.116Z,100946.14
2018-06-04T05:04:17.467Z,100942.96
2018-06-04T05:06:45.858Z,100944.12
2018-06-04T05:09:14.247Z,100943.44
2018-06-04T05:11:42.698Z,100946.41
2018-06-04T05:14:11.029Z,100947.76
2018-06-04T05:16:39.411Z,100949.09
2018-06-04T05:19:07.730Z,100948.08
2018-06-04T05:21:36.539Z,100950.59
2018-06-04T05:24:05.144Z,100948.74
2018-06-04T05:26:33.517Z,100952.59
2018-06-04T05:29:01.959Z,100946.22
2018-06-04T05:31:30.333Z,100938.00
2018-06-04T05:33:58.640Z,100939.16
2018-06-04T05:36:28.620Z,100937.83
2018-06-04T05:38:56.929Z,100933.30
2018-06-04T05:41:25.317Z,100941.16
2018-06-04T05:43:53.677Z,100939.97
2018-06-04T05:46:22.077Z,100947.00
2018-06-04T05:48:50.444Z,100947.12
2018-06-04T05:51:20.064Z,100943.94
2018-06-04T05:53:48.414Z,100941.44
2018-06-04T05:56:17.341Z,100941.91
2018-06-04T05:58:45.636Z,100937.03
2018-06-04T06:01:14.730Z,100927.27
2018-06-04T06:03:43.069Z,100927.41
2018-06-04T06:06:11.389Z,100922.86
2018-06-04T06:08:39.747Z,100925.36
2018-06-04T06:11:08.071Z,100926.66
2018-06-04T06:13:36.430Z,100926.27
2018-06-04T06:16:04.832Z,100925.91
2018-06-04T06:18:33.163Z,100920.70
2018-06-04T06:21:01.539Z,100921.86
2018-06-04T06:23:30.047Z,100916.13
2018-06-04T06:25:58.383Z,100920.12
2018-06-04T06:28:26.868Z,100914.36
2018-06-04T06:30:55.283Z,100910.99
2018-06-04T06:33:23.563Z,100912.81
2018-06-04T06:35:51.929Z,100910.95
2018-06-04T06:38:20.259Z,100910.27
2018-06-04T06:40:48.638Z,100909.91
2018-06-04T06:43:17.032Z,100909.84
2018-06-04T06:45:45.351Z,100909.66
2018-06-04T06:48:13.661Z,100913.49
2018-06-04T06:50:42.024Z,100905.41
2018-06-04T06:53:10.358Z,100906.38
2018-06-04T06:55:38.757Z,100906.31
2018-06-04T06:58:07.103Z,100907.61
2018-06-04T07:00:35.462Z,100914.64
2018-06-04T07:03:03.820Z,100919.97
2018-06-04T07:05:32.163Z,100912.92
2018-06-04T07:08:00.539Z,100910.48
2018-06-04T07:10:28.831Z,100900.73
2018-06-04T07:12:58.895Z,100903.69
2018-06-04T07:15:27.210Z,100904.66
2018-06-04T07:17:55.548Z,100897.55
2018-06-04T07:20:23.924Z,100892.31
2018-06-04T07:22:52.322Z,100890.09
2018-06-04T07:25:20.693Z,100890.36
2018-06-04T07:27:49.136Z,100891.81
2018-06-04T07:30:17.542Z,100887.92
2018-06-04T07:32:45.956Z,100895.28
2018-06-04T07:35:14.402Z,100895.41
2018-06-04T07:37:42.728Z,100891.15
2018-06-04T07:40:11.050Z,100890.42
2018-06-04T07:42:39.405Z,100887.03
2018-06-04T07:45:07.766Z,100890.69
2018-06-04T07:47:36.124Z,100893.32
2018-06-04T07:50:04.476Z,100889.42
2018-06-04T07:52:32.815Z,100893.59
2018-06-04T07:55:01.188Z,100887.99
2018-06-04T07:57:29.520Z,100885.81
2018-06-04T07:59:57.847Z,100883.27
2018-06-04T08:02:26.208Z,100877.70
2018-06-04T08:04:54.532Z,100871.31
2018-06-04T08:07:22.884Z,100874.50
2018-06-04T08:09:51.393Z,100860.50
2018-06-04T08:12:19.777Z,100858.53
2018-06-04T08:14:48.160Z,100855.91
2018-06-04T08:17:16.477Z,100855.95
2018-06-04T08:19:44.797Z,100856.72
2018-06-04T08:22:13.239Z,100849.94
2018-06-04T08:24:41.558Z,100850.19
2018-06-04T08:27:09.871Z,100847.08
2018-06-04T08:29:38.254Z,100841.31
2018-06-04T08:32:06.696Z,100843.94
2018-06-04T08:34:34.979Z,100847.71
2018-06-04T08:37:03.384Z,100845.95
2018-06-04T08:39:31.719Z,100845.75
2018-06-04T08:42:00.056Z,100841.84
2018-06-04T08:44:28.374Z,100842.22
2018-06-04T08:46:56.787Z,100844.41
2018-06-04T08:49:25.192Z,100843.63
2018-06-04T08:51:54.807Z,100844.07
2018-06-04T08:54:23.215Z,100840.87
2018-06-04T08:56:51.537Z,100839.84
2018-06-04T08:59:19.897Z,100842.77
2018-06-04T09:01:48.218Z,100845.46
2018-06-04T09:04:16.587Z,100833.87
2018-06-04T09:06:44.952Z,100837.39
2018-06-04T09:09:13.330Z,100835.85
2018-06-04T09:11:41.695Z,100834.94
2018-06-04T09:14:10.077Z,100836.69
2018-06-04T09:16:38.429Z,100839.94
2018-06-04T09:19:06.744Z,100831.23
2018-06-04T09:21:35.186Z,100834.44
2018-06-04T09:24:03.620Z,100839.50
2018-06-04T09:26:31.955Z,100832.70
2018-06-04T09:29:00.288Z,100828.78
2018-06-04T09:31:28.644Z,100832.22
2018-06-04T09:33:57.028Z,100833.45
2018-06-04T09:36:25.447Z,100834.41
2018-06-04T09:38:53.757Z,100833.89
2018-06-04T09:41:22.089Z,100834.52
2018-06-04T09:43:50.479Z,100825.94
2018-06-04T09:46:18.819Z,100830.92
2018-06-04T09:48:47.184Z,100827.59
2018-06-04T09:51:15.547Z,100825.02
2018-06-04T09:53:43.878Z,100819.87
2018-06-04T09:56:12.180Z,100822.98
2018-06-04T09:58:40.560Z,100816.37
2018-06-04T10:01:08.918Z,100816.66
2018-06-04T10:03:37.284Z,100824.97
2018-06-04T10:06:05.657Z,100823.22
2018-06-04T10:08:33.987Z,100818.97
2018-06-04T10:11:02.297Z,100815.39
2018-06-04T10:13:30.643Z,100818.51
2018-06-04T10:15:58.998Z,100813.53
2018-06-04T10:18:27.344Z,100812.41
2018-06-04T10:20:55.659Z,100819.25
2018-06-04T10:23:23.947Z,100813.97
2018-06-04T10:25:52.298Z,100808.98
2018-06-04T10:28:20.643Z,100809.39
2018-06-04T10:30:49.039Z,100807.55
2018-06-04T10:33:17.439Z,100814.68
2018-06-04T10:35:45.817Z,100813.41
2018-06-04T10:38:14.206Z,100811.48
2018-06-04T10:40:42.572Z,100809.90
2018-06-04T10:43:10.892Z,100813.29
2018-06-04T10:45:39.275Z,100803.91
2018-06-04T10:48:08.356Z,100808.20
2018-06-04T10:50:36.724Z,100806.95
2018-06-04T10:53:05.055Z,100799.73
2018-06-04T10:55:33.988Z,100792.02
2018-06-04T10:58:02.355Z,100798.02
2018-06-04T11:00:30.719Z,100797.59
2018-06-04T11:02:59.058Z,100806.48
2018-06-04T11:05:27.392Z,100794.70
2018-06-04T11:07:55.728Z,100799.07
2018-06-04T11:10:24.141Z,100792.36
2018-06-04T11:12:52.447Z,100791.06
2018-06-04T11:15:20.868Z,100787.08
2018-06-04T11:17:49.192Z,100785.84
2018-06-04T11:20:17.520Z,100783.65
2018-06-04T11:22:45.949Z,100784.77
2018-06-04T11:25:14.431Z,100784.64
2018-06-04T11:27:42.807Z,100781.17
2018-06-04T11:30:11.136Z,100777.80
2018-06-04T11:32:39.470Z,100776.02
2018-06-04T11:35:07.807Z,100777.53
2018-06-04T11:37:36.180Z,100774.25
2018-06-04T11:40:04.589Z,100772.84
2018-06-04T11:42:33.081Z,100766.25
2018-06-04T11:45:01.475Z,100772.39
2018-06-04T11:47:29.799Z,100764.83
2018-06-04T11:49:58.452Z,100762.64
2018-06-04T11:52:26.745Z,100763.55
2018-06-04T11:54:55.103Z,100761.00
2018-06-04T11:57:23.527Z,100761.75
2018-06-04T11:59:52.001Z,100758.27
2018-06-04T12:02:20.311Z,100751.75
2018-06-04T12:04:48.660Z,100755.34
2018-06-04T12:07:17.154Z,100748.50
2018-06-04T12:09:45.488Z,100751.68
2018-06-04T12:12:14.151Z,100748.94
2018-06-04T12:14:42.493Z,100748.56
2018-06-04T12:17:12.413Z,100754.66
2018-06-04T12:19:41.179Z,100748.84
2018-06-04T12:22:11.742Z,100742.44
2018-06-04T12:24:40.174Z,100735.78
2018-06-04T12:27:08.658Z,100742.14
2018-06-04T12:29:37.655Z,100731.22
2018-06-04T12:32:06.059Z,100740.69
2018-06-04T12:34:34.430Z,100739.36
2018-06-04T12:37:03.031Z,100735.19
2018-06-04T12:39:31.359Z,100728.25
2018-06-04T12:41:59.681Z,100727.57
2018-06-04T12:44:28.062Z,100731.41
2018-06-04T12:46:56.398Z,100730.05
2018-06-04T12:49:24.839Z,100728.93
2018-06-04T12:51:53.150Z,100726.61
2018-06-04T12:54:21.462Z,100732.55
2018-06-04T12:56:49.828Z,100730.00
2018-06-04T12:59:18.143Z,100721.60
2018-06-04T13:01:46.479Z,100717.19
2018-06-04T13:04:14.774Z,100724.37
2018-06-04T13:06:43.143Z,100722.41
2018-06-04T13:09:11.446Z,100722.19
2018-06-04T13:11:39.792Z,100720.28
2018-06-04T13:14:08.143Z,100710.45
2018-06-04T13:16:36.487Z,100710.59
2018-06-04T13:19:05.015Z,100707.59
2018-06-04T13:21:33.353Z,100699.92
2018-06-04T13:24:01.701Z,100708.92
2018-06-04T13:26:30.262Z,100701.67
2018-06-04T13:28:58.689Z,100689.35
2018-06-04T13:31:27.050Z,100696.80
2018-06-04T13:33:55.452Z,100702.23
2018-06-04T13:36:23.788Z,100690.96
2018-06-04T13:38:52.183Z,100686.62
2018-06-04T13:41:20.611Z,100684.14
2018-06-04T13:43:48.926Z,100691.98
2018-06-04T13:46:17.231Z,100687.84
2018-06-04T13:48:45.547Z,100680.91
2018-06-04T13:51:13.947Z,100684.03
2018-06-04T13:53:42.322Z,100680.13
2018-06-04T13:56:10.699Z,100681.31
2018-06-04T13:58:38.998Z,100671.29
2018-06-04T14:01:07.350Z,100670.56
2018-06-04T14:03:35.720Z,100667.83
2018-06-04T14:06:04.102Z,100676.36
2018-06-04T14:08:32.563Z,100673.64
2018-06-04T14:11:00.850Z,100675.88
2018-06-04T14:13:29.167Z,100670.39
2018-06-04T14:15:57.471Z,100668.78
2018-06-04T14:18:25.894Z,100664.50
2018-06-04T14:20:54.223Z,100642.19
2018-06-04T14:23:22.614Z,100662.12
2018-06-04T14:25:50.919Z,100661.34
2018-06-04T14:28:19.227Z,100660.99
2018-06-04T14:30:47.685Z,100655.62
2018-06-04T14:33:16.029Z,100657.06
2018-06-04T14:35:44.323Z,100650.08
2018-06-04T14:38:12.670Z,100638.11
2018-06-04T14:40:40.963Z,100646.27
2018-06-04T14:43:09.290Z,100633.08
2018-06-04T14:45:37.678Z,100641.28
2018-06-04T14:48:06.067Z,100640.80
2018-06-04T14:50:34.462Z,100638.38
2018-06-04T14:53:03.839Z,100639.24
2018-06-04T14:55:32.158Z,100635.16
2018-06-04T14:58:00.470Z,100633.80
2018-06-04T15:00:28.797Z,100637.50
2018-06-04T15:02:57.229Z,100630.02
2018-06-04T15:05:25.548Z,100629.52
2018-06-04T15:07:53.954Z,100626.95
2018-06-04T15:10:22.247Z,100626.89
2018-06-04T15:12:50.591Z,100623.54
2018-06-04T15:15:19.083Z,100620.61
2018-06-04T15:17:47.439Z,100620.83
2018-06-04T15:20:16.688Z,100616.75
2018-06-04T15:22:45.095Z,100611.02
2018-06-04T15:25:13.422Z,100611.95
2018-06-04T15:27:41.889Z,100609.05
2018-06-04T15:30:10.232Z,100610.53
2018-06-04T15:32:38.768Z,100610.83
2018-06-04T15:35:07.318Z,100600.84
2018-06-04T15:37:35.868Z,100603.62
2018-06-04T15:40:04.420Z,100600.41
2018-06-04T15:42:32.783Z,100599.73
2018-06-04T15:45:01.111Z,100597.66
2018-06-04T15:47:29.503Z,100587.70
2018-06-04T15:49:57.856Z,100571.31
2018-06-04T15:52:26.249Z,100581.67
2018-06-04T15:54:54.612Z,100573.08
2018-06-04T15:57:24.220Z,100578.67
2018-06-04T15:59:52.570Z,100579.95
2018-06-04T16:02:20.914Z,100579.31
2018-06-04T16:04:49.338Z,100580.12
2018-06-04T16:07:17.671Z,100580.45
2018-06-04T16:09:46.017Z,100582.98
2018-06-04T16:12:14.344Z,100584.34
2018-06-04T16:14:43.400Z,100581.85
2018-06-04T16:17:11.877Z,100582.17
2018-06-04T16:19:40.401Z,100562.71
2018-06-04T16:22:09.359Z,100583.96
2018-06-04T16:24:37.687Z,100582.42
2018-06-04T16:27:06.067Z,100571.12
2018-06-04T16:29:34.425Z,100582.38
2018-06-04T16:32:02.763Z,100580.11
2018-06-04T16:34:31.096Z,100580.23
2018-06-04T16:36:59.470Z,100576.22
2018-06-04T16:39:27.958Z,100570.80
2018-06-04T16:41:56.299Z,100564.56
2018-06-04T16:44:24.647Z,100568.33
2018-06-04T16:46:52.954Z,100562.47
2018-06-04T16:49:21.348Z,100563.09
2018-06-04T16:51:49.696Z,100562.97
2018-06-04T16:54:18.055Z,100562.47
2018-06-04T16:56:46.410Z,100563.00
2018-06-04T16:59:14.811Z,100565.83
2018-06-04T17:01:43.122Z,100562.46
2018-06-04T17:04:11.446Z,100560.86
2018-06-04T17:06:39.751Z,100557.31
2018-06-04T17:09:08.489Z,100559.32
2018-06-04T17:11:36.923Z,100567.46
2018-06-04T17:14:05.251Z,100566.14
2018-06-04T17:16:34.003Z,100547.38
2018-06-04T17:19:02.451Z,100560.09
2018-06-04T17:21:30.784Z,100564.37
2018-06-04T17:23:59.174Z,100564.22
2018-06-04T17:26:27.577Z,100550.70
2018-06-04T17:28:55.876Z,100561.77
2018-06-04T17:31:24.279Z,100557.86
2018-06-04T17:33:53.433Z,100556.52
2018-06-04T17:36:21.813Z,100558.98
2018-06-04T17:38:50.093Z,100561.63
2018-06-04T17:41:18.378Z,100562.89
2018-06-04T17:43:46.672Z,100562.48
2018-06-04T17:46:15.019Z,100562.67
2018-06-04T17:48:43.322Z,100563.11
2018-06-04T17:51:12.792Z,100575.46
2018-06-04T17:53:41.187Z,100573.77
2018-06-04T17:56:09.564Z,100578.55
2018-06-04T17:58:37.871Z,100583.47
2018-06-04T18:01:06.265Z,100582.83
2018-06-04T18:03:34.708Z,100582.89
2018-06-04T18:06:03.093Z,100594.03
2018-06-04T18:08:31.398Z,100595.54
2018-06-04T18:10:59.747Z,100605.28
2018-06-04T18:13:29.076Z,100604.97
2018-06-04T18:15:57.464Z,100600.23
2018-06-04T18:18:25.850Z,100596.06
2018-06-04T18:20:54.298Z,100598.76
2018-06-04T18:23:22.767Z,100599.27
2018-06-04T18:25:51.152Z,100598.70
2018-06-04T18:28:19.455Z,100598.19
2018-06-04T18:30:47.787Z,100605.81
2018-06-04T18:33:16.150Z,100600.48
2018-06-04T18:35:44.447Z,100599.13
2018-06-04T18:38:12.801Z,100603.66
2018-06-04T18:40:41.126Z,100607.11
2018-06-04T18:43:09.515Z,100603.52
2018-06-04T18:45:37.915Z,100613.27
2018-06-04T18:48:06.367Z,100616.87
2018-06-04T18:50:34.731Z,100618.53
2018-06-04T18:53:03.048Z,100623.33
2018-06-04T18:55:31.460Z,100620.72
2018-06-04T18:57:59.803Z,100622.39
2018-06-04T19:00:28.381Z,100615.03
2018-06-04T19:02:56.720Z,100623.13
2018-06-04T19:05:25.051Z,100618.91
2018-06-04T19:07:53.436Z,100620.09
2018-06-04T19:10:21.742Z,100628.94
2018-06-04T19:12:50.209Z,100631.80
2018-06-04T19:15:18.606Z,100633.59
2018-06-04T19:17:47.176Z,100637.03
2018-06-04T19:20:15.529Z,100641.95
2018-06-04T19:22:43.958Z,100642.94
2018-06-04T19:25:12.317Z,100655.83
2018-06-04T19:27:41.517Z,100653.04
2018-06-04T19:30:09.852Z,100654.83
2018-06-04T19:32:38.225Z,100656.09
2018-06-04T19:35:06.686Z,100660.51
2018-06-04T19:37:35.047Z,100661.77
2018-06-04T19:40:03.525Z,100666.46
2018-06-04T19:42:31.917Z,100670.91
2018-06-04T19:45:00.340Z,100677.28
2018-06-04T19:47:28.761Z,100683.63
2018-06-04T19:49:57.047Z,100683.23
2018-06-04T19:52:25.443Z,100690.62
2018-06-04T19:54:53.816Z,100685.80
2018-06-04T19:57:22.257Z,100694.73
2018-06-04T19:59:50.821Z,100700.87
2018-06-04T20:02:19.147Z,100696.45
2018-06-04T20:04:47.527Z,100696.56
2018-06-04T20:07:15.879Z,100702.28
2018-06-04T20:09:44.259Z,100708.34
2018-06-04T20:12:12.582Z,100718.10
2018-06-04T20:14:41.107Z,100715.61
2018-06-04T20:17:09.479Z,100717.90
2018-06-04T20:19:37.889Z,100719.98
2018-06-04T20:23:09.760Z,100721.02
2018-06-04T20:25:38.204Z,100716.59
2018-06-04T20:28:06.612Z,100716.88
2018-06-04T20:30:34.949Z,100721.55
2018-06-04T20:33:03.309Z,100717.71
2018-06-04T20:35:31.682Z,100721.16
2018-06-04T20:38:00.043Z,100727.28
2018-06-04T20:40:28.406Z,100726.35
2018-06-04T20:42:56.710Z,100729.77
2018-06-04T20:45:25.039Z,100733.19
2018-06-04T20:47:53.444Z,100741.69
2018-06-04T20:50:21.930Z,100743.17
2018-06-04T20:52:50.300Z,100741.41
2018-06-04T20:55:18.667Z,100740.27
2018-06-04T20:57:46.976Z,100737.47
2018-06-04T21:00:15.375Z,100741.09
2018-06-04T21:02:43.707Z,100743.91
2018-06-04T21:05:12.092Z,100753.03
2018-06-04T21:07:40.518Z,100746.71
2018-06-04T21:10:09.055Z,100745.77
2018-06-04T21:12:37.418Z,100750.84
2018-06-04T21:15:05.931Z,100749.59
2018-06-04T21:17:34.415Z,100750.03
2018-06-04T21:20:02.721Z,100764.42
2018-06-04T21:22:31.075Z,100764.32
2018-06-04T21:24:59.398Z,100765.13
2018-06-04T21:27:27.734Z,100764.59
2018-06-04T21:29:56.091Z,100757.33
2018-06-04T21:32:24.468Z,100767.08
2018-06-04T21:34:52.759Z,100769.43
2018-06-04T21:37:21.088Z,100763.30
2018-06-04T21:39:49.402Z,100770.35
2018-06-04T21:42:17.810Z,100773.33
2018-06-04T21:44:46.208Z,100772.58
2018-06-04T21:47:14.651Z,100768.66
2018-06-04T21:49:43.050Z,100769.06
2018-06-04T21:52:11.370Z,100770.09
2018-06-04T21:54:39.671Z,100770.29
2018-06-04T21:57:08.102Z,100767.48
2018-06-04T21:59:36.503Z,100771.92
2018-06-04T22:02:04.933Z,100770.05
2018-06-04T22:04:33.282Z,100770.25
2018-06-04T22:07:01.582Z,100771.09
2018-06-04T22:09:29.912Z,100774.61
2018-06-04T22:11:58.307Z,100776.98
2018-06-04T22:14:26.848Z,100780.10
2018-06-04T22:16:55.299Z,100780.19
2018-06-04T22:19:23.586Z,100779.23
2018-06-04T22:21:51.952Z,100779.95
2018-06-04T22:24:20.325Z,100780.97
2018-06-04T22:26:48.777Z,100779.70
2018-06-04T22:29:17.202Z,100754.77
2018-06-04T22:31:45.547Z,100784.41
2018-06-04T22:34:13.864Z,100781.59
2018-06-04T22:36:42.227Z,100788.00
2018-06-04T22:39:10.672Z,100780.05
2018-06-04T22:41:39.071Z,100788.30
2018-06-04T22:44:07.457Z,100783.13
2018-06-04T22:46:35.798Z,100789.02
2018-06-04T22:49:07.568Z,100781.86
2018-06-04T22:51:36.395Z,100782.05
2018-06-04T22:54:04.772Z,100783.39
2018-06-04T22:56:33.091Z,100786.91
2018-06-04T22:59:01.454Z,100779.56
2018-06-04T23:01:29.793Z,100780.27
2018-06-04T23:03:58.123Z,100786.58
2018-06-04T23:06:26.467Z,100777.05
2018-06-04T23:08:54.788Z,100778.98
2018-06-04T23:11:23.119Z,100779.87
2018-06-04T23:13:51.434Z,100773.16
2018-06-04T23:16:19.812Z,100778.95
2018-06-04T23:18:48.232Z,100773.77
2018-06-04T23:21:16.618Z,100770.64
2018-06-04T23:23:44.960Z,100766.68
2018-06-04T23:26:13.287Z,100765.34
2018-06-04T23:28:41.666Z,100762.02
2018-06-04T23:31:09.996Z,100764.06
2018-06-04T23:33:38.367Z,100761.60
2018-06-04T23:36:06.779Z,100765.70
2018-06-04T23:38:35.159Z,100764.74
2018-06-04T23:41:03.580Z,100763.98
2018-06-04T23:43:31.958Z,100768.72
2018-06-04T23:46:00.387Z,100764.75
2018-06-04T23:48:28.797Z,100762.25
2018-06-04T23:50:57.134Z,100760.47
2018-06-04T23:53:25.457Z,100760.66
2018-06-04T23:55:53.819Z,100761.17
2018-06-04T23:58:22.253Z,100754.97
